sensor_id;sensor_type;location;lat;lon;timestamp;pressure;altitude;pressure_sealevel;temperature;humidity
7333;BME280;3707;43.618;25.342;2022-11-11T00:00:16;101248.31;;;13.17;100.00
7333;BME280;3707;43.618;25.342;2022-11-11T00:02:43;101247.47;;;13.18;100.00
7333;BME280;3707;43.618;25.342;2022-11-11T00:05:10;101242.28;;;13.20;100.00
7333;BME280;3707;43.618;25.342;2022-11-11T00:07:38;101239.78;;;13.24;100.00
7333;BME280;3707;43.618;25.342;2022-11-11T00:10:06;101253.06;;;13.35;100.00
7333;BME280;3707;43.618;25.342;2022-11-11T00:12:33;101249.66;;;13.37;100.00
7333;BME280;3707;43.618;25.342;2022-11-11T00:15:00;101239.09;;;13.31;100.00
7333;BME280;3707;43.618;25.342;2022-11-11T00:17:27;101248.09;;;13.46;100.00
7333;BME280;3707;43.618;25.342;2022-11-11T00:20:12;101250.63;;;13.43;100.00
7333;BME280;3707;43.618;25.342;2022-11-11T00:22:57;101247.84;;;13.35;100.00
7333;BME280;3707;43.618;25.342;2022-11-11T00:25:57;101162.47;;;12.49;100.00
7333;BME280;3707;43.618;25.342;2022-11-11T00:28:24;101251.34;;;13.00;100.00
7333;BME280;3707;43.618;25.342;2022-11-11T00:31:00;101240.22;;;12.71;100.00
7333;BME280;3707;43.618;25.342;2022-11-11T00:33:27;101247.25;;;12.75;100.00
7333;BME280;3707;43.618;25.342;2022-11-11T00:35:53;101246.19;;;12.67;100.00
7333;BME280;3707;43.618;25.342;2022-11-11T00:38:22;101230.47;;;12.62;100.00
7333;BME280;3707;43.618;25.342;2022-11-11T00:41:06;101233.44;;;12.43;100.00
7333;BME280;3707;43.618;25.342;2022-11-11T00:43:33;101232.25;;;12.30;100.00
7333;BME280;3707;43.618;25.342;2022-11-11T00:46:00;101235.25;;;12.14;100.00
7333;BME280;3707;43.618;25.342;2022-11-11T00:48:41;101223.97;;;12.12;100.00
7333;BME280;3707;43.618;25.342;2022-11-11T00:51:25;101233.19;;;12.03;100.00
7333;BME280;3707;43.618;25.342;2022-11-11T00:53:54;101221.38;;;11.82;100.00
7333;BME280;3707;43.618;25.342;2022-11-11T00:56:21;101219.38;;;11.74;100.00
7333;BME280;3707;43.618;25.342;2022-11-11T00:58:48;101223.56;;;11.69;100.00
7333;BME280;3707;43.618;25.342;2022-11-11T01:01:15;101213.75;;;11.59;100.00
7333;BME280;3707;43.618;25.342;2022-11-11T01:03:42;101220.50;;;11.54;100.00
7333;BME280;3707;43.618;25.342;2022-11-11T01:06:10;101216.16;;;11.53;100.00
7333;BME280;3707;43.618;25.342;2022-11-11T01:08:37;101218.44;;;11.42;100.00
7333;BME280;3707;43.618;25.342;2022-11-11T01:11:12;101163.16;;;11.16;100.00
7333;BME280;3707;43.618;25.342;2022-11-11T01:13:41;101213.16;;;11.39;100.00
7333;BME280;3707;43.618;25.342;2022-11-11T01:16:12;101208.19;;;11.47;100.00
7333;BME280;3707;43.618;25.342;2022-11-11T01:18:39;101212.09;;;11.32;100.00
7333;BME280;3707;43.618;25.342;2022-11-11T01:21:09;101187.59;;;11.24;100.00
7333;BME280;3707;43.618;25.342;2022-11-11T01:23:38;101205.88;;;11.27;100.00
7333;BME280;3707;43.618;25.342;2022-11-11T01:26:07;101156.44;;;10.94;100.00
7333;BME280;3707;43.618;25.342;2022-11-11T01:28:36;101203.81;;;11.16;100.00
7333;BME280;3707;43.618;25.342;2022-11-11T01:31:05;101163.09;;;10.86;100.00
7333;BME280;3707;43.618;25.342;2022-11-11T01:33:32;101188.34;;;10.92;100.00
7333;BME280;3707;43.618;25.342;2022-11-11T01:36:07;101138.94;;;10.61;100.00
7333;BME280;3707;43.618;25.342;2022-11-11T01:38:34;101114.97;;;10.41;100.00
7333;BME280;3707;43.618;25.342;2022-11-11T01:41:02;101176.53;;;10.73;100.00
7333;BME280;3707;43.618;25.342;2022-11-11T01:43:52;101129.09;;;10.51;100.00
7333;BME280;3707;43.618;25.342;2022-11-11T01:46:29;101191.38;;;10.79;100.00
7333;BME280;3707;43.618;25.342;2022-11-11T01:49:05;101156.97;;;10.58;100.00
7333;BME280;3707;43.618;25.342;2022-11-11T01:51:50;101184.81;;;10.63;100.00
7333;BME280;3707;43.618;25.342;2022-11-11T01:54:21;101187.81;;;10.49;100.00
7333;BME280;3707;43.618;25.342;2022-11-11T01:56:54;101184.28;;;10.47;100.00
7333;BME280;3707;43.618;25.342;2022-11-11T01:59:24;101173.00;;;10.44;100.00
7333;BME280;3707;43.618;25.342;2022-11-11T02:01:52;101191.25;;;10.49;100.00
7333;BME280;3707;43.618;25.342;2022-11-11T02:04:19;101179.75;;;10.66;100.00
7333;BME280;3707;43.618;25.342;2022-11-11T02:07:06;101098.75;;;10.21;100.00
7333;BME280;3707;43.618;25.342;2022-11-11T02:09:35;101184.06;;;10.66;100.00
7333;BME280;3707;43.618;25.342;2022-11-11T02:12:08;101161.81;;;10.47;100.00
7333;BME280;3707;43.618;25.342;2022-11-11T02:14:56;101177.16;;;10.66;100.00
7333;BME280;3707;43.618;25.342;2022-11-11T02:17:25;101140.09;;;10.43;100.00
7333;BME280;3707;43.618;25.342;2022-11-11T02:19:54;101170.34;;;10.70;100.00
7333;BME280;3707;43.618;25.342;2022-11-11T02:22:31;101173.47;;;10.86;100.00
7333;BME280;3707;43.618;25.342;2022-11-11T02:25:03;101167.81;;;11.28;100.00
7333;BME280;3707;43.618;25.342;2022-11-11T02:27:30;101147.25;;;11.35;100.00
7333;BME280;3707;43.618;25.342;2022-11-11T02:29:59;101157.78;;;11.70;100.00
7333;BME280;3707;43.618;25.342;2022-11-11T02:32:27;101148.97;;;11.95;100.00
7333;BME280;3707;43.618;25.342;2022-11-11T02:34:54;101172.94;;;12.17;100.00
7333;BME280;3707;43.618;25.342;2022-11-11T02:37:22;101153.78;;;12.14;100.00
7333;BME280;3707;43.618;25.342;2022-11-11T02:39:51;101188.94;;;12.32;100.00
7333;BME280;3707;43.618;25.342;2022-11-11T02:42:22;101176.22;;;12.43;100.00
7333;BME280;3707;43.618;25.342;2022-11-11T02:44:50;101184.91;;;12.43;100.00
7333;BME280;3707;43.618;25.342;2022-11-11T02:47:23;101166.69;;;12.43;100.00
7333;BME280;3707;43.618;25.342;2022-11-11T02:49:50;101185.88;;;12.49;100.00
7333;BME280;3707;43.618;25.342;2022-11-11T02:52:17;101189.63;;;12.60;100.00
7333;BME280;3707;43.618;25.342;2022-11-11T02:54:44;101201.28;;;12.75;100.00
7333;BME280;3707;43.618;25.342;2022-11-11T02:57:12;101175.84;;;12.62;100.00
7333;BME280;3707;43.618;25.342;2022-11-11T02:59:40;101119.16;;;12.15;100.00
7333;BME280;3707;43.618;25.342;2022-11-11T03:02:07;101199.06;;;12.56;100.00
7333;BME280;3707;43.618;25.342;2022-11-11T03:04:34;101127.75;;;12.12;100.00
7333;BME280;3707;43.618;25.342;2022-11-11T03:07:02;101214.69;;;12.56;100.00
7333;BME280;3707;43.618;25.342;2022-11-11T03:09:29;101186.94;;;12.55;100.00
7333;BME280;3707;43.618;25.342;2022-11-11T03:11:57;101172.03;;;12.50;100.00
7333;BME280;3707;43.618;25.342;2022-11-11T03:14:24;101193.84;;;12.55;100.00
7333;BME280;3707;43.618;25.342;2022-11-11T03:16:52;101186.94;;;12.55;100.00
7333;BME280;3707;43.618;25.342;2022-11-11T03:19:36;101212.28;;;12.64;100.00
7333;BME280;3707;43.618;25.342;2022-11-11T03:22:03;101183.59;;;12.61;100.00
7333;BME280;3707;43.618;25.342;2022-11-11T03:24:29;101217.22;;;12.89;100.00
7333;BME280;3707;43.618;25.342;2022-11-11T03:27:10;101183.25;;;12.83;100.00
7333;BME280;3707;43.618;25.342;2022-11-11T03:29:37;101217.31;;;12.92;100.00
7333;BME280;3707;43.618;25.342;2022-11-11T03:32:06;101215.69;;;12.97;100.00
7333;BME280;3707;43.618;25.342;2022-11-11T03:34:33;101214.88;;;12.98;100.00
7333;BME280;3707;43.618;25.342;2022-11-11T03:37:00;101185.16;;;12.90;100.00
7333;BME280;3707;43.618;25.342;2022-11-11T03:39:44;101208.03;;;13.03;100.00
7333;BME280;3707;43.618;25.342;2022-11-11T03:42:11;101208.09;;;13.06;100.00
7333;BME280;3707;43.618;25.342;2022-11-11T03:44:38;101212.28;;;13.00;100.00
7333;BME280;3707;43.618;25.342;2022-11-11T03:47:06;101194.81;;;12.96;100.00
7333;BME280;3707;43.618;25.342;2022-11-11T03:49:33;101218.44;;;13.03;100.00
7333;BME280;3707;43.618;25.342;2022-11-11T03:51:59;101219.31;;;13.04;100.00
7333;BME280;3707;43.618;25.342;2022-11-11T03:54:26;101201.91;;;13.01;100.00
7333;BME280;3707;43.618;25.342;2022-11-11T03:56:53;101217.72;;;13.09;100.00
7333;BME280;3707;43.618;25.342;2022-11-11T03:59:41;101220.72;;;13.25;100.00
7333;BME280;3707;43.618;25.342;2022-11-11T04:02:11;101209.66;;;13.35;100.00
7333;BME280;3707;43.618;25.342;2022-11-11T04:04:56;101207.22;;;13.43;100.00
7333;BME280;3707;43.618;25.342;2022-11-11T04:07:40;101185.75;;;13.14;100.00
7333;BME280;3707;43.618;25.342;2022-11-11T04:10:24;101196.28;;;13.20;100.00
7333;BME280;3707;43.618;25.342;2022-11-11T04:12:52;101205.22;;;13.30;100.00
7333;BME280;3707;43.618;25.342;2022-11-11T04:15:39;101211.44;;;13.36;100.00
7333;BME280;3707;43.618;25.342;2022-11-11T04:18:25;101211.44;;;13.36;100.00
7333;BME280;3707;43.618;25.342;2022-11-11T04:21:07;101207.75;;;13.28;100.00
7333;BME280;3707;43.618;25.342;2022-11-11T04:23:51;101212.06;;;13.26;100.00
7333;BME280;3707;43.618;25.342;2022-11-11T04:26:18;101213.97;;;13.33;100.00
7333;BME280;3707;43.618;25.342;2022-11-11T04:28:44;101213.69;;;13.21;100.00
7333;BME280;3707;43.618;25.342;2022-11-11T04:31:28;101217.34;;;13.29;100.00
7333;BME280;3707;43.618;25.342;2022-11-11T04:33:56;101203.50;;;13.30;100.00
7333;BME280;3707;43.618;25.342;2022-11-11T04:36:22;101220.00;;;13.32;100.00
7333;BME280;3707;43.618;25.342;2022-11-11T04:38:49;101205.22;;;13.31;100.00
7333;BME280;3707;43.618;25.342;2022-11-11T04:41:33;101204.31;;;13.29;100.00
7333;BME280;3707;43.618;25.342;2022-11-11T04:44:00;101192.66;;;13.12;100.00
7333;BME280;3707;43.618;25.342;2022-11-11T04:46:44;101225.94;;;13.25;100.00
7333;BME280;3707;43.618;25.342;2022-11-11T04:49:12;101228.66;;;13.31;100.00
7333;BME280;3707;43.618;25.342;2022-11-11T04:51:39;101226.94;;;13.30;100.00
7333;BME280;3707;43.618;25.342;2022-11-11T04:54:23;101211.91;;;13.20;100.00
7333;BME280;3707;43.618;25.342;2022-11-11T04:56:50;101199.66;;;13.16;100.00
7333;BME280;3707;43.618;25.342;2022-11-11T04:59:16;101227.63;;;13.23;100.00
7333;BME280;3707;43.618;25.342;2022-11-11T05:01:42;101243.47;;;13.32;100.00
7333;BME280;3707;43.618;25.342;2022-11-11T05:04:28;101233.84;;;13.30;100.00
7333;BME280;3707;43.618;25.342;2022-11-11T05:06:55;101238.13;;;13.28;100.00
7333;BME280;3707;43.618;25.342;2022-11-11T05:09:39;101257.38;;;13.33;100.00
7333;BME280;3707;43.618;25.342;2022-11-11T05:12:06;101266.00;;;13.30;100.00
7333;BME280;3707;43.618;25.342;2022-11-11T05:14:33;101274.78;;;13.34;100.00
7333;BME280;3707;43.618;25.342;2022-11-11T05:17:16;101274.84;;;13.38;100.00
7333;BME280;3707;43.618;25.342;2022-11-11T05:20:01;101277.69;;;13.48;100.00
7333;BME280;3707;43.618;25.342;2022-11-11T05:22:46;101280.03;;;13.37;100.00
7333;BME280;3707;43.618;25.342;2022-11-11T05:25:13;101290.34;;;13.32;100.00
7333;BME280;3707;43.618;25.342;2022-11-11T05:27:51;101255.28;;;13.18;100.00
7333;BME280;3707;43.618;25.342;2022-11-11T05:30:19;101299.22;;;13.40;100.00
7333;BME280;3707;43.618;25.342;2022-11-11T05:32:47;101303.56;;;13.41;100.00
7333;BME280;3707;43.618;25.342;2022-11-11T05:35:16;101311.03;;;13.62;100.00
7333;BME280;3707;43.618;25.342;2022-11-11T05:37:43;101317.13;;;13.64;100.00
7333;BME280;3707;43.618;25.342;2022-11-11T05:40:32;101329.22;;;13.61;100.00
7333;BME280;3707;43.618;25.342;2022-11-11T05:42:59;101318.50;;;13.49;100.00
7333;BME280;3707;43.618;25.342;2022-11-11T05:45:25;101332.59;;;13.57;100.00
7333;BME280;3707;43.618;25.342;2022-11-11T05:47:52;101342.50;;;13.35;100.00
7333;BME280;3707;43.618;25.342;2022-11-11T05:50:20;101251.50;;;12.38;100.00
7333;BME280;3707;43.618;25.342;2022-11-11T05:52:47;101319.44;;;12.49;100.00
7333;BME280;3707;43.618;25.342;2022-11-11T05:55:15;101353.75;;;12.67;100.00
7333;BME280;3707;43.618;25.342;2022-11-11T05:57:41;101343.06;;;12.57;100.00
7333;BME280;3707;43.618;25.342;2022-11-11T06:00:09;101351.66;;;12.54;100.00
7333;BME280;3707;43.618;25.342;2022-11-11T06:02:36;101343.22;;;12.31;100.00
7333;BME280;3707;43.618;25.342;2022-11-11T06:05:04;101333.69;;;12.02;100.00
7333;BME280;3707;43.618;25.342;2022-11-11T06:07:36;101348.56;;;12.06;100.00
7333;BME280;3707;43.618;25.342;2022-11-11T06:10:04;101325.69;;;11.95;100.00
7333;BME280;3707;43.618;25.342;2022-11-11T06:12:48;101354.41;;;11.99;100.00
7333;BME280;3707;43.618;25.342;2022-11-11T06:15:29;101350.28;;;12.06;100.00
7333;BME280;3707;43.618;25.342;2022-11-11T06:17:56;101353.28;;;12.19;100.00
7333;BME280;3707;43.618;25.342;2022-11-11T06:20:23;101338.56;;;12.20;100.00
7333;BME280;3707;43.618;25.342;2022-11-11T06:22:51;101372.09;;;12.40;100.00
7333;BME280;3707;43.618;25.342;2022-11-11T06:25:25;101369.50;;;12.40;100.00
7333;BME280;3707;43.618;25.342;2022-11-11T06:28:10;101380.16;;;12.50;100.00
7333;BME280;3707;43.618;25.342;2022-11-11T06:30:37;101362.69;;;12.46;100.00
7333;BME280;3707;43.618;25.342;2022-11-11T06:33:04;101366.47;;;12.57;100.00
7333;BME280;3707;43.618;25.342;2022-11-11T06:35:33;101397.16;;;12.68;100.00
7333;BME280;3707;43.618;25.342;2022-11-11T06:38:01;101403.03;;;12.61;100.00
7333;BME280;3707;43.618;25.342;2022-11-11T06:40:28;101395.31;;;12.34;100.00
7333;BME280;3707;43.618;25.342;2022-11-11T06:42:56;101395.31;;;12.34;100.00
7333;BME280;3707;43.618;25.342;2022-11-11T06:45:23;101412.78;;;12.38;100.00
7333;BME280;3707;43.618;25.342;2022-11-11T06:47:49;101400.50;;;12.33;100.00
7333;BME280;3707;43.618;25.342;2022-11-11T06:50:16;101407.41;;;12.32;100.00
7333;BME280;3707;43.618;25.342;2022-11-11T06:52:43;101407.31;;;12.29;100.00
7333;BME280;3707;43.618;25.342;2022-11-11T06:55:15;101403.66;;;12.23;100.00
7333;BME280;3707;43.618;25.342;2022-11-11T06:57:42;101395.22;;;12.02;100.00
7333;BME280;3707;43.618;25.342;2022-11-11T07:00:09;101415.38;;;12.09;100.00
7333;BME280;3707;43.618;25.342;2022-11-11T07:02:36;101424.97;;;12.11;100.00
7333;BME280;3707;43.618;25.342;2022-11-11T07:05:04;101417.34;;;12.17;100.00
7333;BME280;3707;43.618;25.342;2022-11-11T07:07:31;101429.53;;;12.18;100.00
7333;BME280;3707;43.618;25.342;2022-11-11T07:09:57;101434.00;;;12.22;100.00
7333;BME280;3707;43.618;25.342;2022-11-11T07:12:27;101436.53;;;12.21;100.00
7333;BME280;3707;43.618;25.342;2022-11-11T07:14:54;101439.53;;;12.06;100.00
7333;BME280;3707;43.618;25.342;2022-11-11T07:17:21;101458.59;;;12.05;100.00
7333;BME280;3707;43.618;25.342;2022-11-11T07:19:48;101459.03;;;11.92;100.00
7333;BME280;3707;43.618;25.342;2022-11-11T07:22:14;101429.63;;;11.68;100.00
7333;BME280;3707;43.618;25.342;2022-11-11T07:24:41;101455.22;;;11.81;100.00
7333;BME280;3707;43.618;25.342;2022-11-11T07:27:08;101462.72;;;11.72;100.00
7333;BME280;3707;43.618;25.342;2022-11-11T07:29:36;101471.91;;;11.62;100.00
7333;BME280;3707;43.618;25.342;2022-11-11T07:32:03;101466.84;;;11.67;100.00
7333;BME280;3707;43.618;25.342;2022-11-11T07:34:30;101480.09;;;11.73;100.00
7333;BME280;3707;43.618;25.342;2022-11-11T07:36:57;101469.69;;;11.73;100.00
7333;BME280;3707;43.618;25.342;2022-11-11T07:39:23;101467.19;;;11.76;100.00
7333;BME280;3707;43.618;25.342;2022-11-11T07:41:50;101474.38;;;11.84;100.00
7333;BME280;3707;43.618;25.342;2022-11-11T07:44:17;101482.06;;;11.80;100.00
7333;BME280;3707;43.618;25.342;2022-11-11T07:46:45;101480.13;;;11.74;100.00
7333;BME280;3707;43.618;25.342;2022-11-11T07:49:12;101475.06;;;11.79;100.00
7333;BME280;3707;43.618;25.342;2022-11-11T07:51:39;101469.00;;;11.78;100.00
7333;BME280;3707;43.618;25.342;2022-11-11T07:54:05;101478.50;;;11.78;100.00
7333;BME280;3707;43.618;25.342;2022-11-11T07:56:32;101483.06;;;11.85;100.00
7333;BME280;3707;43.618;25.342;2022-11-11T07:58:59;101484.78;;;11.84;100.00
7333;BME280;3707;43.618;25.342;2022-11-11T08:01:26;101486.25;;;11.76;100.00
7333;BME280;3707;43.618;25.342;2022-11-11T08:03:54;101490.66;;;11.79;100.00
7333;BME280;3707;43.618;25.342;2022-11-11T08:06:21;101485.47;;;11.79;100.00
7333;BME280;3707;43.618;25.342;2022-11-11T08:08:48;101448.66;;;11.67;100.00
7333;BME280;3707;43.618;25.342;2022-11-11T08:11:16;101474.75;;;11.70;100.00
7333;BME280;3707;43.618;25.342;2022-11-11T08:14:03;101412.94;;;11.34;100.00
7333;BME280;3707;43.618;25.342;2022-11-11T08:16:29;101492.53;;;11.83;100.00
7333;BME280;3707;43.618;25.342;2022-11-11T08:18:57;101491.16;;;11.94;100.00
7333;BME280;3707;43.618;25.342;2022-11-11T08:21:24;101501.34;;;11.88;100.00
7333;BME280;3707;43.618;25.342;2022-11-11T08:23:51;101507.69;;;11.96;100.00
7333;BME280;3707;43.618;25.342;2022-11-11T08:26:18;101507.88;;;12.02;100.00
7333;BME280;3707;43.618;25.342;2022-11-11T08:28:46;101510.03;;;12.15;100.00
7333;BME280;3707;43.618;25.342;2022-11-11T08:31:13;101488.84;;;12.03;100.00
7333;BME280;3707;43.618;25.342;2022-11-11T08:33:40;101532.06;;;12.26;100.00
7333;BME280;3707;43.618;25.342;2022-11-11T08:36:08;101544.44;;;12.33;100.00
7333;BME280;3707;43.618;25.342;2022-11-11T08:38:35;101554.59;;;12.26;100.00
7333;BME280;3707;43.618;25.342;2022-11-11T08:41:03;101554.41;;;12.20;100.00
7333;BME280;3707;43.618;25.342;2022-11-11T08:43:30;101556.03;;;12.16;100.00
7333;BME280;3707;43.618;25.342;2022-11-11T08:45:58;101551.22;;;12.02;100.00
7333;BME280;3707;43.618;25.342;2022-11-11T08:48:24;101565.59;;;11.92;100.00
7333;BME280;3707;43.618;25.342;2022-11-11T08:50:52;101575.63;;;12.07;100.00
7333;BME280;3707;43.618;25.342;2022-11-11T08:53:20;101564.59;;;12.14;100.00
7333;BME280;3707;43.618;25.342;2022-11-11T08:55:47;101568.56;;;12.29;100.00
7333;BME280;3707;43.618;25.342;2022-11-11T08:58:14;101564.94;;;12.24;100.00
7333;BME280;3707;43.618;25.342;2022-11-11T09:00:41;101571.75;;;11.94;100.00
7333;BME280;3707;43.618;25.342;2022-11-11T09:03:10;101565.91;;;12.01;100.00
7333;BME280;3707;43.618;25.342;2022-11-11T09:05:38;101560.41;;;11.92;100.00
7333;BME280;3707;43.618;25.342;2022-11-11T09:08:06;101541.28;;;11.90;100.00
7333;BME280;3707;43.618;25.342;2022-11-11T09:10:35;101539.59;;;11.92;100.00
7333;BME280;3707;43.618;25.342;2022-11-11T09:13:02;101553.84;;;12.03;100.00
7333;BME280;3707;43.618;25.342;2022-11-11T09:15:29;101567.97;;;12.11;100.00
7333;BME280;3707;43.618;25.342;2022-11-11T09:17:57;101543.44;;;12.03;100.00
7333;BME280;3707;43.618;25.342;2022-11-11T09:20:24;101559.44;;;12.15;100.00
7333;BME280;3707;43.618;25.342;2022-11-11T09:22:51;101551.00;;;12.22;100.00
7333;BME280;3707;43.618;25.342;2022-11-11T09:25:18;101550.91;;;12.19;100.00
7333;BME280;3707;43.618;25.342;2022-11-11T09:27:54;101548.91;;;12.11;100.00
7333;BME280;3707;43.618;25.342;2022-11-11T09:30:21;101539.47;;;12.14;100.00
7333;BME280;3707;43.618;25.342;2022-11-11T09:32:48;101534.63;;;12.25;100.00
7333;BME280;3707;43.618;25.342;2022-11-11T09:35:15;101532.06;;;12.26;100.00
7333;BME280;3707;43.618;25.342;2022-11-11T09:37:42;101534.34;;;12.16;100.00
7333;BME280;3707;43.618;25.342;2022-11-11T09:40:21;101532.75;;;12.21;100.00
7333;BME280;3707;43.618;25.342;2022-11-11T09:42:58;101538.94;;;12.24;100.00
7333;BME280;3707;43.618;25.342;2022-11-11T09:45:35;101541.25;;;12.15;100.00
7333;BME280;3707;43.618;25.342;2022-11-11T09:48:19;101532.91;;;12.25;100.00
7333;BME280;3707;43.618;25.342;2022-11-11T09:50:53;101538.06;;;12.52;100.00
7333;BME280;3707;43.618;25.342;2022-11-11T09:53:27;101540.66;;;12.52;100.00
7333;BME280;3707;43.618;25.342;2022-11-11T09:55:59;101522.03;;;12.38;100.00
7333;BME280;3707;43.618;25.342;2022-11-11T09:58:32;101514.13;;;12.35;100.00
7333;BME280;3707;43.618;25.342;2022-11-11T10:01:05;101546.56;;;12.47;100.00
7333;BME280;3707;43.618;25.342;2022-11-11T10:03:37;101536.16;;;12.47;100.00
7333;BME280;3707;43.618;25.342;2022-11-11T10:06:08;101553.22;;;12.65;100.00
7333;BME280;3707;43.618;25.342;2022-11-11T10:08:43;101548.69;;;12.60;100.00
7333;BME280;3707;43.618;25.342;2022-11-11T10:11:19;101558.44;;;12.67;100.00
7333;BME280;3707;43.618;25.342;2022-11-11T10:13:49;101541.94;;;12.38;100.00
7333;BME280;3707;43.618;25.342;2022-11-11T10:16:24;101551.09;;;12.25;100.00
7333;BME280;3707;43.618;25.342;2022-11-11T10:19:04;101552.97;;;12.29;100.00
7333;BME280;3707;43.618;25.342;2022-11-11T10:21:38;101563.22;;;12.25;100.00
7333;BME280;3707;43.618;25.342;2022-11-11T10:24:12;101553.63;;;12.22;100.00
7333;BME280;3707;43.618;25.342;2022-11-11T10:26:43;101558.56;;;12.15;100.00
7333;BME280;3707;43.618;25.342;2022-11-11T10:29:15;101532.34;;;12.35;100.00
7333;BME280;3707;43.618;25.342;2022-11-11T10:31:44;101497.63;;;12.07;100.00
7333;BME280;3707;43.618;25.342;2022-11-11T10:34:15;101558.16;;;12.29;100.00
7333;BME280;3707;43.618;25.342;2022-11-11T10:36:47;101532.59;;;12.43;100.00
7333;BME280;3707;43.618;25.342;2022-11-11T10:39:21;101558.00;;;12.52;100.00
7333;BME280;3707;43.618;25.342;2022-11-11T10:41:50;101560.41;;;12.46;100.00
7333;BME280;3707;43.618;25.342;2022-11-11T10:44:20;101537.63;;;12.38;100.00
7333;BME280;3707;43.618;25.342;2022-11-11T10:46:57;101470.38;;;11.94;100.00
7333;BME280;3707;43.618;25.342;2022-11-11T10:49:28;101561.63;;;12.57;100.00
7333;BME280;3707;43.618;25.342;2022-11-11T10:52:03;101528.50;;;12.51;100.00
7333;BME280;3707;43.618;25.342;2022-11-11T10:54:35;101550.84;;;12.73;100.00
7333;BME280;3707;43.618;25.342;2022-11-11T10:57:09;101565.59;;;12.46;100.00
7333;BME280;3707;43.618;25.342;2022-11-11T10:59:43;101565.59;;;12.46;100.00
7333;BME280;3707;43.618;25.342;2022-11-11T11:02:18;101560.41;;;12.46;100.00
7333;BME280;3707;43.618;25.342;2022-11-11T11:04:49;101522.91;;;12.39;100.00
7333;BME280;3707;43.618;25.342;2022-11-11T11:07:21;101556.50;;;12.60;100.00
7333;BME280;3707;43.618;25.342;2022-11-11T11:09:53;101548.25;;;12.45;100.00
7333;BME280;3707;43.618;25.342;2022-11-11T11:12:28;101559.47;;;12.43;100.00
7333;BME280;3707;43.618;25.342;2022-11-11T11:15:02;101552.50;;;12.42;100.00
7333;BME280;3707;43.618;25.342;2022-11-11T11:17:35;101549.56;;;12.32;100.00
7333;BME280;3707;43.618;25.342;2022-11-11T11:20:10;101559.97;;;12.32;100.00
7333;BME280;3707;43.618;25.342;2022-11-11T11:22:48;101545.84;;;12.51;100.00
7333;BME280;3707;43.618;25.342;2022-11-11T11:25:17;101556.38;;;12.55;100.00
7333;BME280;3707;43.618;25.342;2022-11-11T11:27:44;101555.28;;;12.49;100.00
7333;BME280;3707;43.618;25.342;2022-11-11T11:30:15;101539.50;;;12.42;100.00
7333;BME280;3707;43.618;25.342;2022-11-11T11:32:55;101518.88;;;12.49;100.00
7333;BME280;3707;43.618;25.342;2022-11-11T11:35:31;101494.38;;;12.40;100.00
7333;BME280;3707;43.618;25.342;2022-11-11T11:37:58;101550.94;;;12.48;100.00
7333;BME280;3707;43.618;25.342;2022-11-11T11:40:25;101540.31;;;12.40;100.00
7333;BME280;3707;43.618;25.342;2022-11-11T11:42:53;101518.69;;;12.42;100.00
7333;BME280;3707;43.618;25.342;2022-11-11T11:45:23;101512.56;;;12.40;100.00
7333;BME280;3707;43.618;25.342;2022-11-11T11:48:01;101541.53;;;12.53;100.00
7333;BME280;3707;43.618;25.342;2022-11-11T11:50:39;101544.88;;;12.49;100.00
7333;BME280;3707;43.618;25.342;2022-11-11T11:53:23;101534.38;;;12.46;100.00
7333;BME280;3707;43.618;25.342;2022-11-11T11:55:56;101499.72;;;12.18;100.00
7333;BME280;3707;43.618;25.342;2022-11-11T11:58:32;101535.75;;;12.33;100.00
7333;BME280;3707;43.618;25.342;2022-11-11T12:01:08;101545.16;;;12.29;100.00
7333;BME280;3707;43.618;25.342;2022-11-11T12:03:59;101541.78;;;12.32;100.00
7333;BME280;3707;43.618;25.342;2022-11-11T12:06:39;101513.72;;;12.22;100.00
7333;BME280;3707;43.618;25.342;2022-11-11T12:09:14;101538.63;;;12.42;100.00
7333;BME280;3707;43.618;25.342;2022-11-11T12:11:50;101531.59;;;12.39;100.00
7333;BME280;3707;43.618;25.342;2022-11-11T12:14:36;101515.28;;;12.17;100.00
7333;BME280;3707;43.618;25.342;2022-11-11T12:17:17;101541.28;;;12.43;100.00
7333;BME280;3707;43.618;25.342;2022-11-11T12:19:56;101534.69;;;12.26;100.00
7333;BME280;3707;43.618;25.342;2022-11-11T12:22:38;101550.47;;;12.32;100.00
7333;BME280;3707;43.618;25.342;2022-11-11T12:25:17;101550.94;;;12.21;100.00
7333;BME280;3707;43.618;25.342;2022-11-11T12:27:55;101551.00;;;12.22;100.00
7333;BME280;3707;43.618;25.342;2022-11-11T12:30:24;101550.22;;;12.25;100.00
7333;BME280;3707;43.618;25.342;2022-11-11T12:33:30;101551.84;;;12.21;100.00
7333;BME280;3707;43.618;25.342;2022-11-11T12:36:06;101555.66;;;12.06;100.00
7333;BME280;3707;43.618;25.342;2022-11-11T12:38:48;101565.03;;;12.01;100.00
7333;BME280;3707;43.618;25.342;2022-11-11T12:41:23;101567.47;;;11.96;100.00
7333;BME280;3707;43.618;25.342;2022-11-11T12:43:56;101563.50;;;12.07;100.00
7333;BME280;3707;43.618;25.342;2022-11-11T12:46:32;101569.16;;;11.94;100.00
7333;BME280;3707;43.618;25.342;2022-11-11T12:49:18;101567.28;;;11.90;100.00
7333;BME280;3707;43.618;25.342;2022-11-11T12:51:55;101561.88;;;11.84;100.00
7333;BME280;3707;43.618;25.342;2022-11-11T12:54:30;101585.03;;;12.03;100.00
7333;BME280;3707;43.618;25.342;2022-11-11T12:57:06;101594.34;;;11.97;100.00
7333;BME280;3707;43.618;25.342;2022-11-11T12:59:52;101578.28;;;12.08;100.00
7333;BME280;3707;43.618;25.342;2022-11-11T13:02:37;101582.53;;;12.06;100.00
7333;BME280;3707;43.618;25.342;2022-11-11T13:05:13;101574.69;;;12.05;100.00
7333;BME280;3707;43.618;25.342;2022-11-11T13:08:03;101577.34;;;12.06;100.00
7333;BME280;3707;43.618;25.342;2022-11-11T13:10:41;101564.59;;;11.87;100.00
7333;BME280;3707;43.618;25.342;2022-11-11T13:13:26;101577.09;;;12.25;100.00